CZUM/ZUM METAR and TAF weather

Enter ICAO airport designator
Station Type Date Time Source
CZUM METAR 2019/08/22 02:47 UTC NOAA

CZUM 220247Z AUTO 15003KT 9SM FEW019 OVC028 13/12 A2989 RMK SLP132 DENSITY ALT 1500FT


Station Type Date Time Source
CZUM Decoded METAR 2019/08/22 02:47 UTC NOAA

Station name not available
Aug 21, 2019 - 10:47 PM EDT / 2019.08.22 0247 UTC
Wind: from the SSE (150 degrees) at 3 MPH (3 KT):0
Visibility: 9 mile(s):0
Sky conditions: overcast
Temperature: 55 F (13 C)
Dew Point: 53 F (12 C)
Relative Humidity: 93%
Pressure (altimeter): 29.89 in. Hg (1012 hPa)
ob: CZUM 220247Z AUTO 15003KT 9SM FEW019 OVC028 13/12 A2989 RMK SLP132 DENSITY ALT 1500FT
cycle: 3

Station Type Date Time Source
CZUM TAF 2019/08/22 02:45 UTC NOAA

TAF CZUM 220144Z 2202/2214 VRB03KT 5SM -RA BR BKN015 OVC030
TEMPO 2202/2214 P6SM NSW BKN030 OVC060 PROB30 2206/2214 BKN006
RMK FCST BASED ON AUTO OBS. NXT FCST BY 220800Z

Example: see airport list